Time;durP1;ratioP1;P1;durP2;ratioP2;P2;SDS_P1;SDS_P2;PMS_P1;PMS_P2;Temp;Humidity;BMP_temperature;BMP_pressure;BME280_temperature;BME280_humidity;BME280_pressure;Samples;Min_cycle;Max_cycle;Signal;HPM_P1;HPM_P2
2023/04/14 00:00:56;;;;;;;26.63;23.85;;;7.40;99.90;;;;;;4987550;28;20382;-88
2023/04/14 00:03:22;;;;;;;30.23;26.25;;;7.20;99.90;;;;;;5010082;28;20041;-88
2023/04/14 00:05:47;;;;;;;39.08;35.42;;;7.10;99.90;;;;;;5010114;28;20037;-88
2023/04/14 00:08:13;;;;;;;32.83;29.70;;;8.80;99.90;;;;;;5011666;28;20096;-87
2023/04/14 00:10:38;;;;;;;26.00;23.73;;;8.20;99.90;;;;;;4994305;28;20065;-87
2023/04/14 00:13:04;;;;;;;43.75;40.53;;;7.00;99.90;;;;;;4995404;28;20406;-88
2023/04/14 00:15:29;;;;;;;31.05;28.23;;;7.00;99.90;;;;;;4990704;28;20461;-88
2023/04/14 00:17:55;;;;;;;30.30;24.67;;;7.10;99.90;;;;;;5004988;28;20122;-87
2023/04/14 00:20:21;;;;;;;46.47;42.25;;;9.10;99.90;;;;;;4993961;28;20397;-87
2023/04/14 00:22:46;;;;;;;56.53;51.97;;;7.20;99.90;;;;;;4981709;28;20069;-88
2023/04/14 00:25:12;;;;;;;31.80;29.02;;;7.10;99.90;;;;;;4992563;28;20041;-87
2023/04/14 00:27:37;;;;;;;28.98;25.85;;;7.10;99.90;;;;;;4992382;28;20045;-87
2023/04/14 00:30:04;;;;;;;26.25;23.60;;;7.00;99.90;;;;;;4986082;28;20542;-87
2023/04/14 00:32:29;;;;;;;25.50;23.05;;;7.00;99.90;;;;;;4983396;28;20529;-88
2023/04/14 00:34:55;;;;;;;55.88;50.67;;;8.40;99.90;;;;;;4981398;28;20051;-88
2023/04/14 00:37:22;;;;;;;24.73;22.40;;;6.90;99.90;;;;;;4976410;28;20138;-87
2023/04/14 00:39:47;;;;;;;43.33;40.13;;;8.50;99.90;;;;;;4985265;28;20141;-87
2023/04/14 00:42:13;;;;;;;48.13;44.30;;;6.80;99.90;;;;;;5006153;28;20133;-88
2023/04/14 00:44:38;;;;;;;31.13;24.42;;;6.80;99.90;;;;;;4982783;28;20500;-88
2023/04/14 00:47:04;;;;;;;50.33;45.28;;;6.70;99.90;;;;;;5007354;28;20617;-88
2023/04/14 00:49:30;;;;;;;29.10;24.83;;;8.30;99.90;;;;;;4992010;28;20442;-88
2023/04/14 00:51:57;;;;;;;47.05;43.38;;;6.80;99.90;;;;;;4993291;28;20045;-87
2023/04/14 00:54:24;;;;;;;26.80;24.02;;;6.70;99.90;;;;;;5000090;28;20039;-88
2023/04/14 00:56:50;;;;;;;25.95;23.35;;;6.60;99.90;;;;;;4981828;28;20334;-88
2023/04/14 00:59:16;;;;;;;26.30;23.60;;;6.50;99.90;;;;;;4984139;28;20091;-87
2023/04/14 01:01:42;;;;;;;20.55;18.58;;;8.10;99.90;;;;;;4989913;28;20548;-87
2023/04/14 01:04:08;;;;;;;55.65;50.90;;;6.50;99.90;;;;;;5010735;28;20046;-87
2023/04/14 01:06:34;;;;;;;36.45;33.30;;;6.50;99.90;;;;;;5002743;28;20038;-89
2023/04/14 01:09:00;;;;;;;28.13;25.55;;;6.30;99.90;;;;;;4998764;28;20651;-89
2023/04/14 01:11:31;;;;;;;29.17;26.10;;;6.20;99.90;;;;;;4976032;28;20086;-89
2023/04/14 01:14:34;;;;;;;50.20;46.08;;;6.50;99.90;;;;;;4992869;28;20034;-89
2023/04/14 01:17:31;;;;;;;31.73;28.35;;;6.20;99.90;;;;;;4988935;28;20050;-89
2023/04/14 01:20:05;;;;;;;32.00;27.65;;;6.30;99.90;;;;;;4985019;28;20084;-89
2023/04/14 01:22:34;;;;;;;21.92;15.80;;;6.40;99.90;;;;;;4992092;28;20444;-89
2023/04/14 01:25:38;;;;;;;20.65;17.80;;;6.40;99.90;;;;;;4999673;28;20046;-89
2023/04/14 01:28:31;;;;;;;19.30;17.25;;;6.40;99.90;;;;;;4981147;28;20745;-89
2023/04/14 01:31:15;;;;;;;35.22;32.00;;;6.50;99.90;;;;;;5004043;28;20049;-89
2023/04/14 01:33:43;;;;;;;24.02;14.63;;;6.70;99.90;;;;;;5002822;28;20038;-89
2023/04/14 01:36:13;;;;;;;40.45;37.00;;;6.90;99.90;;;;;;5000866;28;20042;-88
2023/04/14 01:38:39;;;;;;;42.67;38.65;;;6.90;99.90;;;;;;4983876;28;20121;-89
2023/04/14 01:41:08;;;;;;;44.78;39.53;;;6.90;99.90;;;;;;4993256;28;20054;-89
2023/04/14 01:43:38;;;;;;;31.80;27.50;;;6.80;99.90;;;;;;4997467;28;20522;-89
2023/04/14 01:46:08;;;;;;;27.67;24.70;;;6.70;99.90;;;;;;5004638;28;20041;-89
2023/04/14 01:48:34;;;;;;;35.25;32.38;;;6.70;99.90;;;;;;5008961;28;20068;-89
2023/04/14 01:51:02;;;;;;;26.00;22.33;;;6.70;99.90;;;;;;4990786;28;20585;-88
2023/04/14 01:53:29;;;;;;;36.67;33.45;;;8.50;99.90;;;;;;5005528;28;20085;-89
2023/04/14 01:55:56;;;;;;;23.23;19.27;;;6.70;99.90;;;;;;4997312;28;20132;-89
2023/04/14 01:58:24;;;;;;;36.00;32.85;;;6.70;99.90;;;;;;5004702;28;20044;-88
2023/04/14 02:00:51;;;;;;;22.30;20.02;;;6.60;99.90;;;;;;5006085;28;20046;-89
2023/04/14 02:03:19;;;;;;;39.20;35.85;;;6.60;99.90;;;;;;4986196;28;20041;-89
2023/04/14 02:05:47;;;;;;;23.08;18.15;;;6.50;99.90;;;;;;5004860;28;20107;-89
2023/04/14 02:08:15;;;;;;;20.08;15.80;;;6.60;99.90;;;;;;4991965;28;20497;-89
2023/04/14 02:10:44;;;;;;;31.25;28.52;;;6.60;99.90;;;;;;4991192;28;20046;-89
2023/04/14 02:13:11;;;;;;;21.27;19.13;;;6.40;99.90;;;;;;5000637;28;20042;-88
2023/04/14 02:15:37;;;;;;;48.38;44.13;;;6.40;99.90;;;;;;4985842;28;20034;-89
2023/04/14 02:18:06;;;;;;;23.52;20.95;;;6.40;99.90;;;;;;4996360;28;20034;-89
2023/04/14 02:20:33;;;;;;;23.52;19.35;;;6.40;99.90;;;;;;5000940;28;20033;-88
2023/04/14 02:23:01;;;;;;;34.60;30.95;;;6.40;99.90;;;;;;4991609;28;20092;-89
2023/04/14 02:25:31;;;;;;;19.20;16.98;;;6.30;99.90;;;;;;5003650;28;20129;-88
2023/04/14 02:28:05;;;;;;;22.38;20.02;;;6.40;99.90;;;;;;5008427;28;20038;-89
2023/04/14 02:30:39;;;;;;;20.20;17.83;;;6.20;99.90;;;;;;4985227;28;20061;-89
2023/04/14 02:33:11;;;;;;;28.10;23.10;;;6.00;99.90;;;;;;4983613;28;20054;-88
2023/04/14 02:36:06;;;;;;;30.67;23.08;;;7.70;99.90;;;;;;4992424;28;20069;-89
2023/04/14 02:38:44;;;;;;;20.55;18.42;;;5.80;99.90;;;;;;4982807;28;20054;-89
2023/04/14 02:41:23;;;;;;;19.13;17.35;;;5.80;99.90;;;;;;4991903;28;20049;-89
2023/04/14 02:44:10;;;;;;;17.88;15.05;;;5.70;99.90;;;;;;4987547;28;20069;-88
2023/04/14 02:46:41;;;;;;;37.83;32.35;;;5.80;99.90;;;;;;5019953;28;20582;-89
2023/04/14 02:49:11;;;;;;;25.77;21.63;;;5.90;99.90;;;;;;5000415;28;20057;-89
2023/04/14 02:51:38;;;;;;;30.15;27.00;;;6.00;99.90;;;;;;4977832;28;20042;-89
2023/04/14 02:54:05;;;;;;;24.23;20.35;;;6.10;99.90;;;;;;4999390;28;20038;-88
2023/04/14 02:56:32;;;;;;;44.47;39.70;;;6.20;99.90;;;;;;5007882;28;20394;-89
2023/04/14 02:58:59;;;;;;;18.02;16.25;;;5.70;99.90;;;;;;4985334;28;20068;-89
2023/04/14 03:01:25;;;;;;;31.15;27.15;;;5.90;99.90;;;;;;4989162;28;20454;-88
2023/04/14 03:03:53;;;;;;;19.50;17.13;;;5.80;99.90;;;;;;5000732;28;20046;-89
2023/04/14 03:06:19;;;;;;;23.80;21.38;;;5.70;99.90;;;;;;4982176;28;20049;-89
2023/04/14 03:08:46;;;;;;;19.60;17.65;;;5.70;99.90;;;;;;5000602;28;20046;-89
2023/04/14 03:11:13;;;;;;;22.60;20.27;;;5.70;99.90;;;;;;4976973;28;20038;-89
2023/04/14 03:13:41;;;;;;;26.27;23.80;;;5.60;99.90;;;;;;5002885;28;20046;-89
2023/04/14 03:16:09;;;;;;;21.48;18.70;;;7.40;99.90;;;;;;4993873;28;20494;-89
2023/04/14 03:18:35;;;;;;;24.67;21.60;;;5.50;99.90;;;;;;5003317;28;20113;-89
2023/04/14 03:21:03;;;;;;;25.38;20.98;;;5.50;99.90;;;;;;5011219;28;20034;-89
2023/04/14 03:23:30;;;;;;;24.77;20.83;;;5.70;99.90;;;;;;4993628;28;20121;-89
2023/04/14 03:25:56;;;;;;;30.52;16.75;;;5.50;99.90;;;;;;4980011;28;20042;-85
2023/04/14 03:28:27;;;;;;;25.17;19.73;;;5.50;99.90;;;;;;5012102;28;20069;-85
2023/04/14 03:30:54;;;;;;;19.33;16.88;;;5.30;99.90;;;;;;5011462;28;20038;-85
2023/04/14 03:33:23;;;;;;;19.02;15.30;;;5.40;99.90;;;;;;4976942;28;20125;-85
2023/04/14 03:35:51;;;;;;;19.33;13.02;;;5.30;99.90;;;;;;5001424;28;20074;-85
2023/04/14 03:38:19;;;;;;;18.33;16.45;;;5.30;99.90;;;;;;5006585;28;20054;-85
2023/04/14 03:40:46;;;;;;;23.55;17.25;;;6.80;99.90;;;;;;4996297;28;20053;-85
2023/04/14 03:43:18;;;;;;;16.15;14.00;;;5.20;99.90;;;;;;5002998;28;20041;-85
2023/04/14 03:45:46;;;;;;;16.63;12.60;;;5.20;99.90;;;;;;4990223;28;20445;-85
2023/04/14 03:48:13;;;;;;;14.52;11.70;;;5.20;99.90;;;;;;5002997;28;20042;-85
2023/04/14 03:50:41;;;;;;;15.00;13.68;;;5.30;99.90;;;;;;4992286;28;20043;-85
2023/04/14 03:53:11;;;;;;;19.83;15.90;;;5.40;99.90;;;;;;4986786;28;20038;-85
2023/04/14 03:55:38;;;;;;;11.30;9.82;;;5.40;99.90;;;;;;5009102;28;20056;-85
2023/04/14 03:58:07;;;;;;;19.58;11.95;;;5.40;99.90;;;;;;5011623;28;20063;-85
2023/04/14 04:00:33;;;;;;;15.95;14.45;;;5.40;99.90;;;;;;5008750;28;20041;-84
2023/04/14 04:03:00;;;;;;;22.20;16.38;;;5.40;99.90;;;;;;5008538;28;20060;-84
2023/04/14 04:05:26;;;;;;;24.27;18.55;;;5.30;99.90;;;;;;5001738;28;20462;-84
2023/04/14 04:07:54;;;;;;;17.98;13.07;;;5.10;99.90;;;;;;5002092;28;20038;-85
2023/04/14 04:10:20;;;;;;;20.27;11.48;;;5.20;99.90;;;;;;4994699;28;20509;-85
2023/04/14 04:12:48;;;;;;;24.75;16.15;;;5.30;99.90;;;;;;5011411;28;20386;-85
2023/04/14 04:15:14;;;;;;;16.13;12.07;;;5.30;99.90;;;;;;5004948;28;20030;-85
2023/04/14 04:17:41;;;;;;;26.95;16.40;;;6.80;99.90;;;;;;5006545;28;20184;-85
2023/04/14 04:20:11;;;;;;;14.40;12.23;;;5.40;99.90;;;;;;5009815;28;20049;-85
2023/04/14 04:22:39;;;;;;;25.00;19.83;;;5.60;99.90;;;;;;4985688;28;20406;-85
2023/04/14 04:25:07;;;;;;;15.68;12.52;;;5.70;99.90;;;;;;4981673;28;20412;-85
2023/04/14 04:27:33;;;;;;;18.02;12.88;;;5.80;99.90;;;;;;5008098;28;20049;-85
2023/04/14 04:29:59;;;;;;;26.08;15.82;;;5.80;99.90;;;;;;5020861;28;20149;-85
2023/04/14 04:32:25;;;;;;;24.55;14.65;;;5.90;99.90;;;;;;5010046;28;20484;-85
2023/04/14 04:34:52;;;;;;;25.25;16.60;;;5.90;99.90;;;;;;5001523;28;20044;-85
2023/04/14 04:37:21;;;;;;;24.25;18.27;;;5.90;99.90;;;;;;5003697;28;20045;-85
2023/04/14 04:39:47;;;;;;;28.48;20.02;;;5.90;99.90;;;;;;5002685;28;20112;-85
2023/04/14 04:42:13;;;;;;;13.82;10.73;;;5.80;99.90;;;;;;4979413;28;20034;-85
2023/04/14 04:44:39;;;;;;;14.38;12.80;;;5.80;99.90;;;;;;4987450;28;20049;-85
2023/04/14 04:47:05;;;;;;;16.88;15.02;;;6.90;99.90;;;;;;4992132;28;20138;-85
2023/04/14 04:49:30;;;;;;;17.17;13.82;;;5.90;99.90;;;;;;4983537;28;20038;-85
2023/04/14 04:51:56;;;;;;;14.85;11.38;;;6.00;99.90;;;;;;4983957;28;20046;-85
2023/04/14 04:54:22;;;;;;;13.32;11.98;;;5.90;99.90;;;;;;4985069;28;20037;-85
2023/04/14 04:56:47;;;;;;;26.38;18.30;;;6.00;99.90;;;;;;4991076;28;20069;-84
2023/04/14 04:59:13;;;;;;;26.98;17.38;;;6.10;99.90;;;;;;4993650;28;20037;-85
2023/04/14 05:01:39;;;;;;;17.98;13.95;;;6.10;99.90;;;;;;4999180;28;20125;-85
2023/04/14 05:04:05;;;;;;;17.48;14.23;;;6.10;99.90;;;;;;4995236;28;20061;-85
2023/04/14 05:06:34;;;;;;;25.10;16.67;;;6.10;99.90;;;;;;4984107;28;20108;-85
2023/04/14 05:09:00;;;;;;;25.85;21.67;;;6.10;99.90;;;;;;4979715;28;20044;-85
2023/04/14 05:11:25;;;;;;;25.20;19.38;;;6.10;99.90;;;;;;5003394;28;20042;-85
2023/04/14 05:13:51;;;;;;;19.58;15.80;;;6.10;99.90;;;;;;5008039;28;20498;-85
2023/04/14 05:16:17;;;;;;;19.23;13.35;;;6.00;99.90;;;;;;5004651;28;20043;-85
2023/04/14 05:18:42;;;;;;;16.58;14.82;;;6.10;99.90;;;;;;4992594;28;20034;-84
2023/04/14 05:21:11;;;;;;;20.17;12.60;;;6.00;99.90;;;;;;4988915;28;20034;-85
2023/04/14 05:23:38;;;;;;;21.15;15.00;;;6.10;99.90;;;;;;5005509;28;20068;-85
2023/04/14 05:26:05;;;;;;;16.65;13.88;;;7.50;99.90;;;;;;5004778;28;20694;-85
2023/04/14 05:28:31;;;;;;;18.10;15.40;;;6.20;99.90;;;;;;5008418;28;20074;-85
2023/04/14 05:30:56;;;;;;;16.90;15.02;;;6.20;99.90;;;;;;4991626;28;20038;-85
2023/04/14 05:33:22;;;;;;;18.33;15.70;;;6.30;99.90;;;;;;4991768;28;20112;-85
2023/04/14 05:35:49;;;;;;;20.35;18.38;;;8.20;99.90;;;;;;4986533;28;20164;-85
2023/04/14 05:38:16;;;;;;;17.25;15.43;;;8.20;99.90;;;;;;4981945;28;20049;-84
2023/04/14 05:40:42;;;;;;;19.38;14.65;;;6.30;99.90;;;;;;4996379;28;20046;-85
2023/04/14 05:43:08;;;;;;;26.20;23.58;;;6.40;99.90;;;;;;5003257;28;20048;-85
2023/04/14 05:45:34;;;;;;;25.27;20.88;;;6.30;99.90;;;;;;5001031;28;20070;-85
2023/04/14 05:48:00;;;;;;;19.83;17.85;;;7.70;99.90;;;;;;4977064;28;20306;-85
2023/04/14 05:50:26;;;;;;;31.50;22.27;;;6.50;99.90;;;;;;4999013;28;20483;-85
2023/04/14 05:52:52;;;;;;;17.52;15.68;;;6.60;99.90;;;;;;5001290;28;20125;-84
2023/04/14 05:55:18;;;;;;;17.15;14.20;;;6.60;99.90;;;;;;5000669;28;20042;-85
2023/04/14 05:57:44;;;;;;;28.92;23.67;;;6.60;99.90;;;;;;4975754;28;20085;-85
2023/04/14 06:00:11;;;;;;;23.70;20.33;;;6.70;99.90;;;;;;4998477;28;20437;-85
2023/04/14 06:02:37;;;;;;;15.13;12.18;;;6.70;99.90;;;;;;4990284;28;20522;-85
2023/04/14 06:05:05;;;;;;;21.98;17.80;;;6.90;99.90;;;;;;5002279;28;20482;-84
2023/04/14 06:07:31;;;;;;;29.52;24.80;;;7.00;99.90;;;;;;4997822;28;20113;-85
2023/04/14 06:09:56;;;;;;;18.63;13.65;;;7.00;99.90;;;;;;4983754;28;20121;-85
2023/04/14 06:12:22;;;;;;;29.48;26.67;;;7.20;99.90;;;;;;5002841;28;20038;-85
2023/04/14 06:14:47;;;;;;;24.17;21.50;;;7.30;99.90;;;;;;4998164;28;20458;-84
2023/04/14 06:17:13;;;;;;;34.83;26.23;;;7.40;99.90;;;;;;4982885;28;20038;-85
2023/04/14 06:19:38;;;;;;;30.02;19.17;;;7.50;99.90;;;;;;5009610;28;20080;-85
2023/04/14 06:22:07;;;;;;;27.55;24.75;;;7.60;99.90;;;;;;4996435;28;20049;-84
2023/04/14 06:24:33;;;;;;;23.40;20.65;;;7.80;99.90;;;;;;4979428;28;20537;-85
2023/04/14 06:26:59;;;;;;;34.63;31.23;;;7.80;99.90;;;;;;4986366;28;20050;-84
2023/04/14 06:29:25;;;;;;;23.80;19.95;;;8.00;99.90;;;;;;4998693;28;20502;-84
2023/04/14 06:31:51;;;;;;;24.45;18.60;;;8.10;99.90;;;;;;4987542;28;20034;-84
2023/04/14 06:34:17;;;;;;;28.02;24.98;;;8.20;99.90;;;;;;4983239;28;20259;-85
2023/04/14 06:36:42;;;;;;;27.48;20.35;;;8.40;99.90;;;;;;5005660;28;20506;-85
2023/04/14 06:39:08;;;;;;;45.13;40.58;;;8.50;99.90;;;;;;5002966;28;20054;-85
2023/04/14 06:41:34;;;;;;;32.60;23.40;;;8.60;99.90;;;;;;4980971;28;20534;-83
2023/04/14 06:43:59;;;;;;;20.45;18.40;;;9.80;99.90;;;;;;5003208;28;20048;-83
2023/04/14 06:46:25;;;;;;;27.90;25.05;;;8.90;99.90;;;;;;4982065;28;20445;-85
2023/04/14 06:48:51;;;;;;;24.42;21.90;;;9.10;99.90;;;;;;4988164;28;20532;-84
2023/04/14 06:51:17;;;;;;;27.35;24.42;;;9.20;99.90;;;;;;4998264;28;20576;-84
2023/04/14 06:53:42;;;;;;;52.47;44.97;;;9.30;99.90;;;;;;4997441;28;20134;-84
2023/04/14 06:56:08;;;;;;;39.47;35.55;;;9.60;99.90;;;;;;4986878;28;20121;-85
2023/04/14 06:58:34;;;;;;;41.50;37.28;;;9.60;99.90;;;;;;4999350;28;20149;-84
2023/04/14 07:01:01;;;;;;;45.03;37.88;;;10.50;99.90;;;;;;4995923;28;20542;-82
2023/04/14 07:03:28;;;;;;;39.08;34.33;;;9.80;99.90;;;;;;5006802;28;20048;-83
2023/04/14 07:05:53;;;;;;;42.00;36.33;;;10.00;99.90;;;;;;5003779;28;20041;-83
2023/04/14 07:08:20;;;;;;;51.67;41.67;;;10.20;99.90;;;;;;4999118;28;20034;-83
2023/04/14 07:10:46;;;;;;;49.85;45.08;;;10.30;99.90;;;;;;4981386;28;20038;-84
2023/04/14 07:13:12;;;;;;;49.70;45.10;;;10.70;99.90;;;;;;5006445;28;20042;-84
2023/04/14 07:15:38;;;;;;;42.45;36.03;;;10.50;99.90;;;;;;4979056;28;20445;-84
2023/04/14 07:18:04;;;;;;;34.80;31.42;;;10.70;99.90;;;;;;4982798;28;20037;-84
2023/04/14 07:20:31;;;;;;;42.17;37.83;;;10.70;99.90;;;;;;5006215;28;20512;-84
2023/04/14 07:22:57;;;;;;;60.10;41.85;;;10.80;99.90;;;;;;4982037;28;20077;-85
2023/04/14 07:25:22;;;;;;;32.63;28.15;;;10.90;99.90;;;;;;4998643;28;20085;-83
2023/04/14 07:27:48;;;;;;;29.65;24.80;;;11.10;99.90;;;;;;4982461;28;20038;-84
2023/04/14 07:30:14;;;;;;;32.50;29.45;;;12.50;99.90;;;;;;5003808;28;20042;-83
2023/04/14 07:32:39;;;;;;;58.10;51.05;;;11.40;99.90;;;;;;4997381;28;20065;-84
2023/04/14 07:35:07;;;;;;;40.88;35.55;;;11.50;99.90;;;;;;5011348;28;20038;-84
2023/04/14 07:37:33;;;;;;;34.70;29.45;;;11.70;99.90;;;;;;4984929;28;20098;-84
2023/04/14 07:39:59;;;;;;;30.52;25.88;;;11.90;99.90;;;;;;4983289;28;20192;-84
2023/04/14 07:42:25;;;;;;;35.88;32.28;;;11.60;99.90;;;;;;4983219;28;20064;-84
2023/04/14 07:44:50;;;;;;;39.40;35.45;;;12.50;99.90;;;;;;4986849;28;20492;-84
2023/04/14 07:47:16;;;;;;;28.38;24.35;;;12.90;99.90;;;;;;5001495;28;20038;-84
2023/04/14 07:49:42;;;;;;;34.90;31.58;;;13.10;99.90;;;;;;4993229;28;20056;-84
2023/04/14 07:52:07;;;;;;;25.58;19.80;;;13.60;99.90;;;;;;4984090;28;20441;-83
2023/04/14 07:54:33;;;;;;;18.85;14.85;;;13.50;99.90;;;;;;5003202;28;20048;-83
2023/04/14 07:56:59;;;;;;;25.55;19.55;;;13.60;99.90;;;;;;4982833;28;20048;-82
2023/04/14 07:59:25;;;;;;;26.63;21.02;;;13.80;99.90;;;;;;4984192;28;20049;-83
2023/04/14 08:01:51;;;;;;;25.05;19.17;;;13.80;99.90;;;;;;4985970;28;20573;-84
2023/04/14 08:04:16;;;;;;;25.95;18.27;;;13.50;99.90;;;;;;5004160;28;20080;-84
2023/04/14 08:06:42;;;;;;;31.75;26.58;;;14.20;99.90;;;;;;4973365;28;20370;-82
2023/04/14 08:09:07;;;;;;;23.70;18.50;;;13.70;99.90;;;;;;4986106;28;20501;-84
2023/04/14 08:11:33;;;;;;;24.17;19.02;;;13.80;99.90;;;;;;5001396;28;20050;-84
2023/04/14 08:14:00;;;;;;;28.65;23.70;;;14.50;99.90;;;;;;4985285;28;20041;-84
2023/04/14 08:16:26;;;;;;;23.02;17.85;;;12.50;99.90;;;;;;4981451;28;20046;-84
2023/04/14 08:18:52;;;;;;;23.88;18.58;;;15.30;99.90;;;;;;4981790;28;20060;-83
2023/04/14 08:21:17;;;;;;;16.60;12.57;;;13.50;99.90;;;;;;5005345;28;20513;-83
2023/04/14 08:23:43;;;;;;;18.73;15.70;;;13.20;99.90;;;;;;5010423;28;20502;-84
2023/04/14 08:26:09;;;;;;;26.67;19.45;;;13.60;21.00;;;;;;5011151;28;20573;-84
2023/04/14 08:28:34;;;;;;;23.83;11.25;;;13.80;99.90;;;;;;4986736;28;20048;-84
2023/04/14 08:31:00;;;;;;;25.25;19.65;;;14.00;1.00;;;;;;4987626;28;20489;-85
2023/04/14 08:33:26;;;;;;;23.70;12.48;;;15.50;99.90;;;;;;5007180;28;20624;-84
2023/04/14 08:35:51;;;;;;;13.35;8.98;;;16.20;99.90;;;;;;4993597;28;20056;-84
2023/04/14 08:38:18;;;;;;;13.38;7.90;;;16.40;1.00;;;;;;5007377;28;20114;-84
2023/04/14 08:40:46;;;;;;;15.65;8.00;;;16.00;99.90;;;;;;4998209;28;20057;-85
2023/04/14 08:43:13;;;;;;;15.35;9.10;;;16.60;1.00;;;;;;5004013;28;20041;-84
2023/04/14 08:45:39;;;;;;;20.98;12.55;;;15.20;88.80;;;;;;5010650;28;20141;-84
2023/04/14 08:48:05;;;;;;;18.48;11.38;;;16.10;1.00;;;;;;4988524;28;20149;-84
2023/04/14 08:50:34;;;;;;;20.98;10.77;;;15.80;99.90;;;;;;4983565;28;20061;-84
2023/04/14 08:53:03;;;;;;;20.40;10.35;;;15.70;1.00;;;;;;5005773;28;20141;-84
2023/04/14 08:55:30;;;;;;;20.42;12.13;;;17.30;99.90;;;;;;4993044;28;20030;-83
2023/04/14 08:57:56;;;;;;;18.92;10.60;;;15.50;99.90;;;;;;4996998;28;20049;-84
2023/04/14 09:00:22;;;;;;;16.05;11.23;;;15.40;1.00;;;;;;4985773;28;20049;-84
2023/04/14 09:02:49;;;;;;;13.65;9.43;;;15.30;99.90;;;;;;4990989;28;20422;-84
2023/04/14 09:05:15;;;;;;;14.95;8.95;;;15.40;99.90;;;;;;4997662;28;20046;-84
2023/04/14 09:07:41;;;;;;;13.50;9.00;;;15.50;99.90;;;;;;4985604;28;20041;-83
2023/04/14 09:10:09;;;;;;;13.48;8.60;;;15.60;95.90;;;;;;5009282;28;20037;-84
2023/04/14 09:12:37;;;;;;;14.05;7.43;;;15.70;55.60;;;;;;4993004;28;20049;-83
2023/04/14 09:15:03;;;;;;;14.80;9.70;;;16.00;19.90;;;;;;5005164;28;20042;-83
2023/04/14 09:17:30;;;;;;;11.77;6.43;;;16.00;1.00;;;;;;4974137;28;20034;-83
2023/04/14 09:19:56;;;;;;;12.85;7.10;;;16.00;1.00;;;;;;5002687;28;20046;-83
2023/04/14 09:22:21;;;;;;;13.18;6.60;;;16.20;99.90;;;;;;5008476;28;20417;-83
2023/04/14 09:24:48;;;;;;;15.88;9.13;;;16.10;99.90;;;;;;5007652;28;20615;-83
2023/04/14 09:27:14;;;;;;;14.65;8.02;;;15.90;99.90;;;;;;4975784;28;20049;-84
2023/04/14 09:29:40;;;;;;;14.98;9.02;;;15.70;99.90;;;;;;5008591;28;20046;-83
2023/04/14 09:32:08;;;;;;;14.55;7.70;;;15.80;99.90;;;;;;5007089;28;20046;-83
2023/04/14 09:34:34;;;;;;;16.98;8.68;;;17.00;99.90;;;;;;4992075;28;20038;-84
2023/04/14 09:37:08;;;;;;;12.52;6.53;;;15.50;99.90;;;;;;4990069;28;20038;-83
2023/04/14 09:39:45;;;;;;;12.27;5.57;;;15.60;99.90;;;;;;4966557;28;20086;-83
2023/04/14 09:42:11;;;;;;;10.40;6.75;;;15.60;99.90;;;;;;4948645;28;20089;-83
2023/04/14 09:44:57;;;;;;;10.23;6.28;;;15.40;91.50;;;;;;4970285;28;20046;-84
2023/04/14 09:47:24;;;;;;;8.82;6.05;;;15.50;83.00;;;;;;4951288;29;20047;-82
2023/04/14 09:50:02;;;;;;;11.68;9.07;;;15.40;76.00;;;;;;4960973;28;20043;-83
2023/04/14 09:52:43;;;;;;;11.00;6.85;;;15.30;58.00;;;;;;4953041;28;20627;-82
2023/04/14 09:55:11;;;;;;;16.25;9.05;;;14.90;40.50;;;;;;4968693;28;20054;-83
2023/04/14 09:57:40;;;;;;;13.02;9.25;;;14.60;38.90;;;;;;4944961;29;20035;-83
2023/04/14 10:00:15;;;;;;;19.27;11.90;;;14.70;47.00;;;;;;4963063;28;20072;-83
2023/04/14 10:02:51;;;;;;;14.43;7.18;;;15.60;61.50;;;;;;4952453;28;20085;-83
2023/04/14 10:05:20;;;;;;;;;;;14.60;42.40;;;;;;4965621;28;20530;-83
2023/04/14 10:07:46;;;;;;;15.85;9.82;;;14.40;36.60;;;;;;4968670;28;19922;-83
2023/04/14 10:10:12;;;;;;;10.68;8.68;;;15.80;39.30;;;;;;4948501;28;20043;-84
2023/04/14 10:12:43;;;;;;;11.07;9.68;;;14.20;37.80;;;;;;4952895;28;20043;-85
2023/04/14 10:15:10;;;;;;;9.05;7.57;;;15.40;45.60;;;;;;4938402;28;20075;-83
2023/04/14 10:17:36;;;;;;;10.25;8.63;;;14.30;43.80;;;;;;4951175;28;20122;-83
2023/04/14 10:20:04;;;;;;;15.27;10.95;;;14.20;39.30;;;;;;4945617;28;20045;-83
2023/04/14 10:22:30;;;;;;;12.82;9.75;;;13.80;27.90;;;;;;4959283;28;20050;-84
2023/04/14 10:24:58;;;;;;;15.15;13.68;;;13.90;30.00;;;;;;4963963;28;20038;-83
2023/04/14 10:27:26;;;;;;;12.13;7.93;;;14.20;31.70;;;;;;4949427;28;20050;-84
2023/04/14 10:29:52;;;;;;;9.10;7.70;;;14.40;30.60;;;;;;4962464;28;20427;-84
2023/04/14 10:32:20;;;;;;;14.93;8.88;;;14.50;34.80;;;;;;4965127;28;20410;-84
2023/04/14 10:35:07;;;;;;;10.85;9.30;;;14.30;28.00;;;;;;4964124;28;20038;-84
2023/04/14 10:37:34;;;;;;;10.18;7.60;;;14.40;34.20;;;;;;4948293;28;20065;-84
2023/04/14 10:40:05;;;;;;;12.48;7.90;;;14.50;29.60;;;;;;4983103;28;20053;-84
2023/04/14 10:42:50;;;;;;;11.23;9.57;;;15.50;29.80;;;;;;4996416;28;20414;-84
2023/04/14 10:45:16;;;;;;;8.82;6.20;;;15.70;31.20;;;;;;4999977;28;20438;-84
2023/04/14 10:47:44;;;;;;;11.30;8.35;;;15.00;21.20;;;;;;5006182;28;20046;-84
2023/04/14 10:50:16;;;;;;;9.73;7.50;;;15.20;23.70;;;;;;4995579;28;20512;-84
2023/04/14 10:52:54;;;;;;;9.02;7.43;;;15.90;20.80;;;;;;4993230;28;20465;-83
2023/04/14 10:55:25;;;;;;;12.75;10.45;;;15.10;10.80;;;;;;4996789;28;20030;-85
2023/04/14 10:57:53;;;;;;;8.43;3.88;;;15.20;14.20;;;;;;4985305;28;20034;-84
2023/04/14 11:00:23;;;;;;;8.57;5.25;;;15.70;10.00;;;;;;4980747;28;20144;-84
2023/04/14 11:02:55;;;;;;;10.38;5.05;;;15.50;15.10;;;;;;4998976;28;20089;-84
2023/04/14 11:05:21;;;;;;;11.88;8.20;;;15.50;1.30;;;;;;4983648;28;20124;-85
2023/04/14 11:07:52;;;;;;;8.52;5.25;;;15.40;1.00;;;;;;4989505;28;20045;-84
2023/04/14 11:10:21;;;;;;;11.65;4.60;;;15.10;1.00;;;;;;5000128;28;20038;-84
2023/04/14 11:12:52;;;;;;;8.23;5.47;;;15.20;1.00;;;;;;4984554;28;20457;-84
2023/04/14 11:15:18;;;;;;;13.02;6.15;;;15.10;1.00;;;;;;4981263;28;20045;-84
2023/04/14 11:17:44;;;;;;;9.27;4.15;;;15.60;1.00;;;;;;4994580;28;20026;-84
2023/04/14 11:20:14;;;;;;;10.30;5.30;;;16.60;1.00;;;;;;4980145;28;20038;-85
2023/04/14 11:22:45;;;;;;;7.65;4.55;;;15.20;1.00;;;;;;4981650;28;20046;-85
2023/04/14 11:25:13;;;;;;;5.93;4.63;;;15.20;1.00;;;;;;5011591;28;20041;-85
2023/04/14 11:27:39;;;;;;;15.27;5.75;;;15.10;1.00;;;;;;5009559;28;20064;-85
2023/04/14 11:30:07;;;;;;;9.55;4.95;;;16.00;1.00;;;;;;5007264;28;20101;-85
2023/04/14 11:32:55;;;;;;;6.75;3.95;;;15.00;1.00;;;;;;5028039;28;20139;-84
2023/04/14 11:35:23;;;;;;;7.90;4.78;;;14.90;1.00;;;;;;4995718;28;20502;-84
2023/04/14 11:37:53;;;;;;;7.50;6.70;;;15.50;1.00;;;;;;4987261;28;20100;-84
2023/04/14 11:40:18;;;;;;;10.40;6.60;;;14.60;1.00;;;;;;4989968;28;20405;-85
2023/04/14 11:42:47;;;;;;;9.75;4.18;;;16.40;1.00;;;;;;4995213;28;20042;-86
2023/04/14 11:45:16;;;;;;;8.02;3.80;;;14.50;1.00;;;;;;4989750;28;20107;-86
2023/04/14 11:48:03;;;;;;;5.78;4.00;;;14.50;1.00;;;;;;5009317;28;20042;-85
2023/04/14 11:50:37;;;;;;;7.80;4.20;;;14.20;1.00;;;;;;4982844;28;20050;-85
2023/04/14 11:53:08;;;;;;;8.68;5.22;;;14.30;1.00;;;;;;4991993;28;20037;-85
2023/04/14 11:55:34;;;;;;;10.00;6.70;;;14.50;1.00;;;;;;5009828;28;20088;-85
2023/04/14 11:58:00;;;;;;;7.28;4.65;;;14.80;1.00;;;;;;5010933;28;20046;-85
2023/04/14 12:00:29;;;;;;;6.70;4.28;;;15.50;1.00;;;;;;5002089;28;20041;-84
2023/04/14 12:02:55;;;;;;;7.80;3.80;;;16.20;1.00;;;;;;4987804;28;20076;-85
2023/04/14 12:05:28;;;;;;;7.50;3.90;;;15.00;1.00;;;;;;4981159;28;20046;-85
2023/04/14 12:08:02;;;;;;;7.20;4.07;;;14.80;1.00;;;;;;4991898;28;20038;-84
2023/04/14 12:10:28;;;;;;;6.10;3.80;;;14.90;1.00;;;;;;5005463;28;20037;-84
2023/04/14 12:13:08;;;;;;;9.57;5.75;;;14.70;1.00;;;;;;4990570;28;20414;-85
2023/04/14 12:15:39;;;;;;;7.38;4.20;;;14.40;1.00;;;;;;5007503;28;20038;-86
2023/04/14 12:18:13;;;;;;;7.30;6.00;;;14.50;1.00;;;;;;5002712;28;20436;-84
2023/04/14 12:20:44;;;;;;;12.25;4.25;;;15.60;1.00;;;;;;5009526;28;20494;-84
2023/04/14 12:23:10;;;;;;;9.23;5.57;;;15.50;1.00;;;;;;5009467;28;20073;-84
2023/04/14 12:25:35;;;;;;;7.13;4.15;;;14.20;1.00;;;;;;5001141;28;20587;-84
2023/04/14 12:28:04;;;;;;;9.48;4.72;;;14.00;1.00;;;;;;4985897;28;20189;-84
2023/04/14 12:30:31;;;;;;;7.07;6.00;;;13.90;1.00;;;;;;4981865;28;20038;-85
2023/04/14 12:32:56;;;;;;;12.68;5.82;;;13.90;1.00;;;;;;4988051;28;20041;-85
2023/04/14 12:35:22;;;;;;;9.35;5.00;;;14.40;1.00;;;;;;4991856;28;20046;-85
2023/04/14 12:37:49;;;;;;;7.95;5.45;;;13.80;1.00;;;;;;5001477;28;20077;-85
2023/04/14 12:40:16;;;;;;;5.18;3.38;;;13.80;1.00;;;;;;4991538;28;20054;-85
2023/04/14 12:42:47;;;;;;;7.70;4.28;;;13.80;1.00;;;;;;4978796;28;20417;-85